createdAt,value
2023-01-13T00:01:51.891Z,7.10
2023-01-13T00:04:38.377Z,7.10
2023-01-13T00:07:25.058Z,7.08
2023-01-13T00:10:11.976Z,7.14
2023-01-13T00:12:58.569Z,7.14
2023-01-13T00:15:45.312Z,7.20
2023-01-13T00:18:33.011Z,7.18
2023-01-13T00:21:23.235Z,7.18
2023-01-13T00:24:11.042Z,7.18
2023-01-13T00:26:57.435Z,7.16
2023-01-13T00:29:44.377Z,7.17
2023-01-13T00:32:31.290Z,7.12
2023-01-13T00:35:17.984Z,7.01
2023-01-13T00:38:04.650Z,7.07
2023-01-13T00:41:03.229Z,6.94
2023-01-13T00:43:50.687Z,6.92
2023-01-13T00:46:37.211Z,6.92
2023-01-13T00:49:23.941Z,6.90
2023-01-13T00:52:12.130Z,6.86
2023-01-13T00:54:58.700Z,6.80
2023-01-13T00:57:45.213Z,6.80
2023-01-13T01:00:33.175Z,6.78
2023-01-13T01:03:21.919Z,6.76
2023-01-13T01:06:18.439Z,6.73
2023-01-13T01:09:05.792Z,6.66
2023-01-13T01:11:52.619Z,6.63
2023-01-13T01:14:39.013Z,6.66
2023-01-13T01:17:25.903Z,6.57
2023-01-13T01:20:12.730Z,6.44
2023-01-13T01:22:59.144Z,6.39
2023-01-13T01:25:46.090Z,6.38
2023-01-13T01:28:34.776Z,6.39
2023-01-13T01:31:31.309Z,6.37
2023-01-13T01:34:17.878Z,6.41
2023-01-13T01:37:05.356Z,6.50
2023-01-13T01:39:51.620Z,6.57
2023-01-13T01:42:57.056Z,6.59
2023-01-13T01:45:43.782Z,6.55
2023-01-13T01:48:35.021Z,6.61
2023-01-13T01:51:21.824Z,6.65
2023-01-13T01:54:12.581Z,6.66
2023-01-13T01:56:59.642Z,6.63
2023-01-13T01:59:46.556Z,6.64
2023-01-13T02:02:33.419Z,6.60
2023-01-13T02:05:20.857Z,6.57
2023-01-13T02:08:08.924Z,6.64
2023-01-13T02:10:55.541Z,6.63
2023-01-13T02:13:42.172Z,6.68
2023-01-13T02:16:29.088Z,6.69
2023-01-13T02:19:37.454Z,6.72
2023-01-13T02:22:54.715Z,6.69
2023-01-13T02:26:05.939Z,6.64
2023-01-13T02:29:23.323Z,6.70
2023-01-13T02:32:34.387Z,6.61
2023-01-13T02:35:23.951Z,6.68
2023-01-13T02:38:13.603Z,6.73
2023-01-13T02:41:26.452Z,6.72
2023-01-13T02:44:20.691Z,6.73
2023-01-13T02:47:15.267Z,6.69
2023-01-13T02:50:17.454Z,6.59
2023-01-13T02:53:12.891Z,6.61
2023-01-13T02:56:03.358Z,6.61
2023-01-13T02:58:51.318Z,6.53
2023-01-13T03:01:38.402Z,6.68
2023-01-13T03:04:47.767Z,6.58
2023-01-13T03:07:49.925Z,6.62
2023-01-13T03:11:03.722Z,6.60
2023-01-13T03:14:06.356Z,6.63
2023-01-13T03:17:11.704Z,6.65
2023-01-13T03:20:11.391Z,6.60
2023-01-13T03:23:09.656Z,6.53
2023-01-13T03:26:04.383Z,6.62
2023-01-13T03:28:58.951Z,6.61
2023-01-13T03:32:10.531Z,6.64
2023-01-13T03:35:04.972Z,6.69
2023-01-13T03:38:02.744Z,6.69
2023-01-13T03:40:54.552Z,6.74
2023-01-13T03:44:23.395Z,6.82
2023-01-13T03:47:25.182Z,6.80
2023-01-13T03:50:46.166Z,6.78
2023-01-13T03:53:37.954Z,6.87
2023-01-13T03:56:43.246Z,6.88
2023-01-13T03:59:36.139Z,6.92
2023-01-13T04:02:35.666Z,6.96
2023-01-13T04:05:23.657Z,6.94
2023-01-13T04:08:20.051Z,6.95
2023-01-13T04:11:12.080Z,6.94
2023-01-13T04:14:01.378Z,6.89
2023-01-13T04:16:49.082Z,6.78
2023-01-13T04:19:35.451Z,6.76
2023-01-13T04:22:22.394Z,6.69
2023-01-13T04:25:09.595Z,6.69
2023-01-13T04:27:56.324Z,6.70
2023-01-13T04:30:47.243Z,6.70
2023-01-13T04:33:33.983Z,6.73
2023-01-13T04:36:25.044Z,6.76
2023-01-13T04:39:11.865Z,6.83
2023-01-13T04:41:58.536Z,6.92
2023-01-13T04:44:45.457Z,6.90
2023-01-13T04:47:31.921Z,6.90
2023-01-13T04:50:19.866Z,6.88
2023-01-13T04:53:06.403Z,6.82
2023-01-13T04:55:52.992Z,6.92
2023-01-13T04:58:39.712Z,6.89
2023-01-13T05:01:26.457Z,6.87
2023-01-13T05:04:15.509Z,6.88
2023-01-13T05:07:02.067Z,6.92
2023-01-13T05:09:48.751Z,6.91
2023-01-13T05:12:54.235Z,6.92
2023-01-13T05:16:00.043Z,6.87
2023-01-13T05:18:47.025Z,6.88
2023-01-13T05:21:52.212Z,6.86
2023-01-13T05:24:57.479Z,6.87
2023-01-13T05:27:43.808Z,6.84
2023-01-13T05:30:36.216Z,6.79
2023-01-13T05:33:22.324Z,6.69
2023-01-13T05:36:09.173Z,6.65
2023-01-13T05:38:56.070Z,6.65
2023-01-13T05:42:01.663Z,6.54
2023-01-13T05:44:47.940Z,6.57
2023-01-13T05:47:34.893Z,6.54
2023-01-13T05:50:22.966Z,6.52
2023-01-13T05:53:09.491Z,6.38
2023-01-13T05:55:56.779Z,6.37
2023-01-13T05:58:43.897Z,6.30
2023-01-13T06:01:30.518Z,6.27
2023-01-13T06:04:17.133Z,6.25
2023-01-13T06:07:04.060Z,6.15
2023-01-13T06:09:51.628Z,6.11
2023-01-13T06:12:38.215Z,6.21
2023-01-13T06:15:24.951Z,6.19
2023-01-13T06:18:11.561Z,6.11
2023-01-13T06:20:58.282Z,6.10
2023-01-13T06:23:45.214Z,6.08
2023-01-13T06:26:36.910Z,6.06
2023-01-13T06:29:23.395Z,6.09
2023-01-13T06:32:16.853Z,6.13
2023-01-13T06:35:08.328Z,6.11
2023-01-13T06:37:57.978Z,6.10
2023-01-13T06:40:45.555Z,6.13
2023-01-13T06:43:32.756Z,6.18
2023-01-13T06:46:19.794Z,6.14
2023-01-13T06:49:07.588Z,6.13
2023-01-13T06:51:56.743Z,6.17
2023-01-13T06:54:44.389Z,6.09
2023-01-13T06:57:32.915Z,6.13
2023-01-13T07:00:23.836Z,6.12
2023-01-13T07:03:16.079Z,6.11
2023-01-13T07:06:03.661Z,6.04
2023-01-13T07:08:50.485Z,6.00
2023-01-13T07:11:36.969Z,6.06
2023-01-13T07:14:42.570Z,6.08
2023-01-13T07:17:29.237Z,6.14
2023-01-13T07:20:17.064Z,6.21
2023-01-13T07:23:13.152Z,6.19
2023-01-13T07:26:01.044Z,6.21
2023-01-13T07:28:48.071Z,6.30
2023-01-13T07:31:35.396Z,6.28
2023-01-13T07:34:23.674Z,6.30
2023-01-13T07:37:16.927Z,6.25
2023-01-13T07:40:07.084Z,6.23
2023-01-13T07:43:12.263Z,6.26
2023-01-13T07:46:01.179Z,6.29
2023-01-13T07:48:51.086Z,6.25
2023-01-13T07:51:40.311Z,6.28
2023-01-13T07:54:39.753Z,6.28
2023-01-13T07:57:28.086Z,6.37
2023-01-13T08:01:04.444Z,6.35
2023-01-13T08:03:51.700Z,6.34
2023-01-13T08:06:50.760Z,6.42
2023-01-13T08:09:39.210Z,6.41
2023-01-13T08:12:50.844Z,6.44
2023-01-13T08:15:43.273Z,6.49
2023-01-13T08:18:32.334Z,6.49
2023-01-13T08:21:20.386Z,6.52
2023-01-13T08:24:22.168Z,6.51
2023-01-13T08:27:11.443Z,6.51
2023-01-13T08:30:00.918Z,6.59
2023-01-13T08:32:49.767Z,6.66
2023-01-13T08:35:41.405Z,6.69
2023-01-13T08:38:29.579Z,6.79
2023-01-13T08:41:40.579Z,6.82
2023-01-13T08:44:31.390Z,6.78
2023-01-13T08:47:18.398Z,6.82
2023-01-13T08:54:19.800Z,6.87
2023-01-13T08:57:07.492Z,6.89
2023-01-13T08:59:54.747Z,7.00
2023-01-13T09:02:41.436Z,6.99
2023-01-13T09:05:28.453Z,7.05
2023-01-13T09:08:15.094Z,7.14
2023-01-13T09:11:22.119Z,7.19
2023-01-13T09:14:09.380Z,7.14
2023-01-13T09:16:57.788Z,7.14
2023-01-13T09:19:45.090Z,7.13
2023-01-13T09:22:36.364Z,7.20
2023-01-13T09:25:26.434Z,7.31
2023-01-13T09:28:13.237Z,7.29
2023-01-13T09:31:03.975Z,7.29
2023-01-13T09:34:09.802Z,7.28
2023-01-13T09:36:56.539Z,7.23
2023-01-13T09:39:43.836Z,7.25
2023-01-13T09:43:00.768Z,7.24
2023-01-13T09:45:58.828Z,7.21
2023-01-13T09:48:52.568Z,7.26
2023-01-13T09:52:08.790Z,7.27
2023-01-13T09:55:10.554Z,7.33
2023-01-13T09:58:15.243Z,7.34
2023-01-13T10:07:21.031Z,7.45
2023-01-13T10:10:21.404Z,7.43
2023-01-13T10:13:16.574Z,7.52
2023-01-13T10:16:10.997Z,7.64
2023-01-13T10:19:36.989Z,7.65
2023-01-13T10:23:26.927Z,7.61
2023-01-13T10:26:44.015Z,7.61
2023-01-13T10:29:37.843Z,7.64
2023-01-13T10:32:25.781Z,7.66
2023-01-13T10:35:13.016Z,7.71
2023-01-13T10:38:03.748Z,7.72
2023-01-13T10:40:58.169Z,7.82
2023-01-13T10:43:58.760Z,7.81
2023-01-13T10:46:59.886Z,7.88
2023-01-13T10:50:21.047Z,7.90
2023-01-13T10:53:20.165Z,8.01
2023-01-13T10:56:18.092Z,8.01
2023-01-13T10:59:27.469Z,8.03
2023-01-13T11:02:25.266Z,8.06
2023-01-13T11:05:24.748Z,8.21
2023-01-13T11:08:21.180Z,8.12
2023-01-13T11:11:36.988Z,8.20
2023-01-13T11:14:39.489Z,8.18
2023-01-13T11:18:05.212Z,8.21
2023-01-13T11:20:54.662Z,8.18
2023-01-13T11:23:47.585Z,8.25
2023-01-13T11:27:10.916Z,8.29
2023-01-13T11:30:34.012Z,8.33
2023-01-13T11:33:54.712Z,8.32
2023-01-13T11:36:56.978Z,8.44
2023-01-13T11:39:58.387Z,8.45
2023-01-13T11:42:49.474Z,8.52
2023-01-13T11:45:44.014Z,8.53
2023-01-13T11:48:38.191Z,8.59
2023-01-13T11:51:46.113Z,8.72
2023-01-13T11:54:57.739Z,8.84
2023-01-13T11:57:53.750Z,8.90
2023-01-13T12:00:57.765Z,8.82
2023-01-13T12:04:33.529Z,8.77
2023-01-13T12:08:02.349Z,8.73
2023-01-13T12:11:07.706Z,8.76
2023-01-13T12:14:07.284Z,8.79
2023-01-13T12:16:54.367Z,8.89
2023-01-13T12:20:27.254Z,8.86
2023-01-13T12:23:37.464Z,8.67
2023-01-13T12:26:43.829Z,8.79
2023-01-13T12:29:38.450Z,8.66
2023-01-13T12:32:51.519Z,8.64
2023-01-13T12:36:12.482Z,8.69
2023-01-13T12:45:23.179Z,8.66
2023-01-13T12:49:05.277Z,8.61
2023-01-13T12:51:52.845Z,8.63
2023-01-13T12:54:39.579Z,8.72
2023-01-13T12:57:57.242Z,8.75
2023-01-13T13:00:45.409Z,8.71
2023-01-13T13:03:36.694Z,8.77
2023-01-13T13:06:31.139Z,8.84
2023-01-13T13:09:26.874Z,8.86
2023-01-13T13:12:50.093Z,8.86
2023-01-13T13:15:37.558Z,8.91
2023-01-13T13:18:28.646Z,8.86
2023-01-13T13:21:17.021Z,8.92
2023-01-13T13:24:09.260Z,8.99
2023-01-13T13:26:56.485Z,9.00
2023-01-13T13:29:56.786Z,9.03
2023-01-13T13:32:49.926Z,9.14
2023-01-13T13:36:06.339Z,9.09
2023-01-13T13:39:40.312Z,9.04
2023-01-13T13:42:38.931Z,8.93
2023-01-13T13:45:46.031Z,8.94
2023-01-13T13:48:33.887Z,8.90
2023-01-13T13:51:46.313Z,9.01
2023-01-13T13:54:33.453Z,9.04
2023-01-13T13:57:27.286Z,9.02
2023-01-13T14:00:28.014Z,9.02
2023-01-13T14:03:31.525Z,8.97
2023-01-13T14:06:24.457Z,8.91
2023-01-13T14:09:18.969Z,8.94
2023-01-13T14:12:20.046Z,8.97
2023-01-13T14:15:43.903Z,8.88
2023-01-13T14:18:47.906Z,8.85
2023-01-13T14:21:37.021Z,8.89
2023-01-13T14:24:25.327Z,8.89
2023-01-13T14:27:19.089Z,8.95
2023-01-13T14:30:12.079Z,8.90
2023-01-13T14:35:18.079Z,8.98
2023-01-13T14:38:04.653Z,8.96
2023-01-13T14:40:51.067Z,8.94
2023-01-13T14:43:46.293Z,9.01
2023-01-13T14:46:43.413Z,9.02
2023-01-13T14:49:45.728Z,9.00
2023-01-13T14:52:57.299Z,9.04
2023-01-13T14:55:44.193Z,8.99
2023-01-13T14:58:30.879Z,8.99
2023-01-13T15:01:43.147Z,8.93
2023-01-13T15:04:37.496Z,8.82
2023-01-13T15:07:29.051Z,8.76
2023-01-13T15:10:27.280Z,8.76
2023-01-13T15:13:35.894Z,8.68
2023-01-13T15:16:25.303Z,8.64
2023-01-13T15:19:12.696Z,8.65
2023-01-13T15:21:59.108Z,8.74
2023-01-13T15:24:57.193Z,8.73
2023-01-13T15:27:58.511Z,8.73
2023-01-13T15:30:49.439Z,8.78
2023-01-13T15:33:37.250Z,8.83
2023-01-13T15:36:31.454Z,8.79
2023-01-13T15:39:19.398Z,8.79
2023-01-13T15:42:25.347Z,8.74
2023-01-13T15:45:32.459Z,8.63
2023-01-13T15:48:21.919Z,8.59
2023-01-13T15:51:18.030Z,8.52
2023-01-13T15:54:07.881Z,8.53
2023-01-13T15:56:54.950Z,8.63
2023-01-13T15:59:43.993Z,8.63
2023-01-13T16:02:32.237Z,8.58
2023-01-13T16:05:22.090Z,8.61
2023-01-13T16:13:03.415Z,8.47
2023-01-13T16:15:50.509Z,8.43
2023-01-13T16:18:37.659Z,8.50
2023-01-13T16:21:28.832Z,8.48
2023-01-13T16:24:16.141Z,8.52
2023-01-13T16:27:30.554Z,8.55
2023-01-13T16:30:28.215Z,8.42
2023-01-13T16:33:15.110Z,8.41
2023-01-13T16:36:10.626Z,8.47
2023-01-13T16:49:39.539Z,8.37
2023-01-13T16:52:26.146Z,8.31
2023-01-13T16:55:13.131Z,8.36
2023-01-13T16:58:05.469Z,8.42
2023-01-13T17:00:53.304Z,8.38
2023-01-13T17:03:39.938Z,8.48
2023-01-13T17:06:37.107Z,8.45
2023-01-13T17:09:26.624Z,8.48
2023-01-13T17:12:13.384Z,8.51
2023-01-13T17:14:59.994Z,8.65
2023-01-13T17:17:52.729Z,8.66
2023-01-13T17:20:39.395Z,8.77
2023-01-13T17:23:27.754Z,8.72
2023-01-13T17:26:43.306Z,8.76
2023-01-13T17:29:36.802Z,8.80
2023-01-13T17:35:10.296Z,8.76
2023-01-13T17:37:57.204Z,8.67
2023-01-13T17:40:44.679Z,8.56
2023-01-13T17:43:32.472Z,8.57
2023-01-13T17:46:20.592Z,8.59
2023-01-13T17:49:09.479Z,8.57
2023-01-13T17:51:56.175Z,8.49
2023-01-13T17:54:43.926Z,8.50
2023-01-13T17:57:32.584Z,8.44
2023-01-13T18:00:21.661Z,8.38
2023-01-13T18:03:10.792Z,8.32
2023-01-13T18:06:05.084Z,8.22
2023-01-13T18:08:56.870Z,8.14
2023-01-13T18:11:45.631Z,8.16
2023-01-13T18:14:44.300Z,8.07
2023-01-13T18:17:37.755Z,8.02
2023-01-13T18:20:44.867Z,7.91
2023-01-13T18:23:50.587Z,7.83
2023-01-13T18:26:58.158Z,7.84
2023-01-13T18:29:55.040Z,7.72
2023-01-13T18:32:42.308Z,7.64
2023-01-13T18:35:30.342Z,7.68
2023-01-13T18:38:27.457Z,7.72
2023-01-13T18:41:38.037Z,7.74
2023-01-13T18:44:26.867Z,7.70
2023-01-13T18:47:15.762Z,7.74
2023-01-13T18:50:04.355Z,7.72
2023-01-13T18:52:53.187Z,7.72
2023-01-13T18:55:40.813Z,7.74
2023-01-13T18:58:30.698Z,7.76
2023-01-13T19:01:32.434Z,7.71
2023-01-13T19:04:20.180Z,7.69
2023-01-13T19:07:15.924Z,7.68
2023-01-13T19:10:08.245Z,7.66
2023-01-13T19:12:55.576Z,7.63
2023-01-13T19:21:52.904Z,7.66
2023-01-13T19:24:45.430Z,7.64
2023-01-13T19:27:34.978Z,7.75
2023-01-13T19:30:26.423Z,7.74
2023-01-13T19:33:13.990Z,7.77
2023-01-13T19:36:04.780Z,7.83
2023-01-13T19:38:51.163Z,7.81
2023-01-13T19:42:05.068Z,7.86
2023-01-13T19:45:12.290Z,7.82
2023-01-13T19:48:02.445Z,7.80
2023-01-13T19:50:49.831Z,7.90
2023-01-13T19:53:36.580Z,8.00
2023-01-13T19:56:28.551Z,8.03
2023-01-13T19:59:23.817Z,8.12
2023-01-13T20:02:32.234Z,8.13
2023-01-13T20:05:25.780Z,8.05
2023-01-13T20:08:13.644Z,8.12
2023-01-13T20:11:24.521Z,8.19
2023-01-13T20:14:11.533Z,8.23
2023-01-13T20:17:01.103Z,8.28
2023-01-13T20:19:51.565Z,8.32
2023-01-13T20:22:41.788Z,8.36
2023-01-13T20:25:29.042Z,8.38
2023-01-13T20:28:15.853Z,8.45
2023-01-13T20:31:06.894Z,8.47
2023-01-13T20:33:53.598Z,8.51
2023-01-13T20:41:22.474Z,8.70
2023-01-13T20:44:15.778Z,8.78
2023-01-13T20:47:07.459Z,8.87
2023-01-13T20:50:18.746Z,8.93
2023-01-13T20:53:05.555Z,8.99
2023-01-13T20:55:58.152Z,9.07
2023-01-13T20:58:45.232Z,9.08
2023-01-13T21:01:32.577Z,9.19
2023-01-13T21:08:34.994Z,9.15
2023-01-13T21:11:42.474Z,9.10
2023-01-13T21:18:59.493Z,9.16
2023-01-13T21:21:46.459Z,9.19
2023-01-13T21:24:33.735Z,9.25
2023-01-13T21:27:21.100Z,9.25
2023-01-13T21:41:43.385Z,9.30
2023-01-13T21:44:50.166Z,9.33
2023-01-13T21:47:51.069Z,9.24
2023-01-13T21:50:38.404Z,9.30
2023-01-13T21:53:25.625Z,9.31
2023-01-13T21:56:20.897Z,9.32
2023-01-13T21:59:28.814Z,9.30
2023-01-13T22:09:27.652Z,9.10
2023-01-13T22:12:23.462Z,9.17
2023-01-13T22:18:57.449Z,9.12
2023-01-13T22:24:53.404Z,9.01
2023-01-13T22:27:44.933Z,9.00
2023-01-13T22:30:32.688Z,8.98
2023-01-13T22:35:12.317Z,9.00
2023-01-13T22:37:59.129Z,8.81
2023-01-13T22:40:47.613Z,8.87
2023-01-13T22:43:36.250Z,8.84
2023-01-13T22:46:23.872Z,8.77
2023-01-13T22:49:13.640Z,8.73
2023-01-13T22:52:00.561Z,8.72
2023-01-13T22:54:50.361Z,8.73
2023-01-13T22:57:47.286Z,8.66
2023-01-13T23:01:44.194Z,8.59
2023-01-13T23:04:20.070Z,8.50
2023-01-13T23:07:07.476Z,8.49
2023-01-13T23:09:54.362Z,8.41
2023-01-13T23:12:41.072Z,8.40
2023-01-13T23:15:28.342Z,8.42
2023-01-13T23:18:15.113Z,8.39
2023-01-13T23:21:07.952Z,8.31
2023-01-13T23:23:55.604Z,8.29
2023-01-13T23:26:43.748Z,8.29
2023-01-13T23:29:30.677Z,8.27
2023-01-13T23:32:17.357Z,8.27
2023-01-13T23:35:05.875Z,8.23
2023-01-13T23:48:34.464Z,8.05
2023-01-13T23:51:21.510Z,8.07
2023-01-13T23:54:08.349Z,7.96
2023-01-13T23:56:55.378Z,7.99
2023-01-13T23:59:42.196Z,7.96
